Terminal Aerodrome Forecast
Issued by NWS

Home | Current Version | Previous Version | Text Only | Print | Product List | Glossary On
Versions: 1 2 3 4 5 6 7 8 9 10 11 12 13 14 15 16 17 18 19 20 21 22 23 24 25 26 27 28 29 30 31 32
327
FTUS43 KDLH 231731
TAFHIB
TAF
KHIB 231731Z 2318/2418 10011KT P6SM BKN090
     FM232100 10011KT P6SM VCSH SCT013 BKN080
     FM240200 11012KT P6SM VCSH SCT025 BKN060
      TEMPO 2402/2406 6SM -SHRA BR BKN013 OVC025
     FM240700 12008KT P6SM VCSH SCT007 OVC011
     FM241600 14009KT P6SM BKN025=

USA.gov is the U.S. government's official web portal to all federal, state and local government web resources and services.